Time;durP1;ratioP1;P1;durP2;ratioP2;P2;SDS_P1;SDS_P2;PMS_P1;PMS_P2;Temp;Humidity;BMP_temperature;BMP_pressure;BME280_temperature;BME280_humidity;BME280_pressure;Samples;Min_cycle;Max_cycle;Signal;HPM_P1;HPM_P2
2023/01/22 00:01:23;;;;;;;152.90;54.63;;;;;;;;;;6281928;28;20040;-58
2023/01/22 00:04:23;;;;;;;161.48;55.85;;;;;;;;;;6290102;28;20055;-54
2023/01/22 00:07:24;;;;;;;162.60;56.08;;;;;;;;;;6285211;28;20040;-55
2023/01/22 00:10:24;;;;;;;154.25;55.72;;;;;;;;;;6279403;28;20135;-63
2023/01/22 00:13:26;;;;;;;152.50;56.35;;;;;;;;;;6290275;28;20052;-55
2023/01/22 00:16:27;;;;;;;150.40;55.40;;;;;;;;;;6288296;28;20064;-55
2023/01/22 00:19:27;;;;;;;154.50;56.25;;;;;;;;;;6280927;28;20102;-55
2023/01/22 00:22:29;;;;;;;149.95;54.88;;;;;;;;;;6281904;28;20045;-63
2023/01/22 00:25:30;;;;;;;147.75;53.47;;;;;;;;;;6292409;28;20066;-56
2023/01/22 00:28:31;;;;;;;145.80;52.13;;;;;;;;;;6285517;28;20053;-59
2023/01/22 00:31:32;;;;;;;139.60;50.80;;;;;;;;;;6292102;28;20045;-60
2023/01/22 00:34:33;;;;;;;144.27;48.22;;;;;;;;;;6292512;28;20091;-59
2023/01/22 00:37:33;;;;;;;135.05;46.70;;;;;;;;;;6291647;28;20282;-53
2023/01/22 00:40:34;;;;;;;133.20;47.83;;;;;;;;;;6287143;28;20500;-55
2023/01/22 00:43:39;;;;;;;137.13;49.47;;;;;;;;;;6286602;28;20052;-54
2023/01/22 00:46:39;;;;;;;138.88;48.80;;;;;;;;;;6291878;28;20074;-50
2023/01/22 00:49:40;;;;;;;134.23;48.92;;;;;;;;;;6280607;28;20053;-56
2023/01/22 00:52:41;;;;;;;129.10;47.75;;;;;;;;;;6285237;28;20049;-60
2023/01/22 00:55:56;;;;;;;140.25;47.30;;;;;;;;;;6288122;28;20052;-53
2023/01/22 00:58:57;;;;;;;130.60;45.47;;;;;;;;;;6284749;28;20045;-63
2023/01/22 01:01:57;;;;;;;135.95;47.83;;;;;;;;;;6292143;28;20124;-63
2023/01/22 01:05:00;;;;;;;138.35;45.63;;;;;;;;;;6283243;28;20197;-59
2023/01/22 01:08:01;;;;;;;126.60;45.70;;;;;;;;;;6289074;28;20796;-59
2023/01/22 01:11:05;;;;;;;135.32;46.83;;;;;;;;;;6290429;28;20056;-55
2023/01/22 01:14:05;;;;;;;127.20;45.65;;;;;;;;;;6282212;28;20085;-59
2023/01/22 01:17:06;;;;;;;107.97;40.35;;;;;;;;;;6280957;28;20044;-53
2023/01/22 01:20:08;;;;;;;113.75;39.80;;;;;;;;;;6278807;28;20040;-55
2023/01/22 01:23:08;;;;;;;106.47;36.92;;;;;;;;;;6285092;28;20183;-55
2023/01/22 01:26:11;;;;;;;113.65;39.30;;;;;;;;;;6287997;28;20088;-62
2023/01/22 01:29:12;;;;;;;111.93;37.60;;;;;;;;;;6282406;28;20053;-62
2023/01/22 01:32:13;;;;;;;107.00;37.47;;;;;;;;;;6274834;28;20098;-57
2023/01/22 01:35:13;;;;;;;109.32;40.75;;;;;;;;;;6278270;28;20041;-55
2023/01/22 01:38:14;;;;;;;108.93;37.33;;;;;;;;;;6284885;28;20051;-58
2023/01/22 01:41:19;;;;;;;109.72;39.30;;;;;;;;;;6286409;28;20091;-55
2023/01/22 01:44:22;;;;;;;107.72;38.03;;;;;;;;;;6279798;28;20043;-57
2023/01/22 01:47:31;;;;;;;102.95;37.70;;;;;;;;;;6295609;28;20044;-58
2023/01/22 01:50:32;;;;;;;101.03;37.78;;;;;;;;;;6286828;28;20052;-63
2023/01/22 01:53:33;;;;;;;97.97;35.85;;;;;;;;;;6275103;28;20098;-57
2023/01/22 01:56:40;;;;;;;98.95;37.03;;;;;;;;;;6272963;28;20055;-56
2023/01/22 01:59:43;;;;;;;100.38;34.40;;;;;;;;;;6276964;28;20053;-58
2023/01/22 02:02:44;;;;;;;92.45;33.13;;;;;;;;;;6267563;28;20505;-57
2023/01/22 02:05:45;;;;;;;88.00;30.80;;;;;;;;;;6268837;28;20041;-62
2023/01/22 02:08:47;;;;;;;91.95;31.70;;;;;;;;;;6268060;28;20049;-57
2023/01/22 02:11:49;;;;;;;96.70;33.47;;;;;;;;;;6269375;28;20124;-55
2023/01/22 02:14:50;;;;;;;;;;;;;;;;;;6268664;28;20092;-57
2023/01/22 02:17:51;;;;;;;97.85;33.25;;;;;;;;;;6271990;28;20022;-56
2023/01/22 02:20:56;;;;;;;101.00;35.20;;;;;;;;;;6265257;28;20057;-55
2023/01/22 02:23:57;;;;;;;91.00;33.47;;;;;;;;;;6270583;28;20053;-63
2023/01/22 02:26:58;;;;;;;92.88;32.15;;;;;;;;;;6270896;28;20055;-54
2023/01/22 02:29:58;;;;;;;84.38;30.58;;;;;;;;;;6267570;28;20140;-57
2023/01/22 02:32:59;;;;;;;89.03;32.47;;;;;;;;;;6272052;28;20048;-59
2023/01/22 02:35:59;;;;;;;79.82;29.85;;;;;;;;;;6261673;28;20084;-54
2023/01/22 02:39:01;;;;;;;86.35;31.38;;;;;;;;;;6268936;28;20044;-54
2023/01/22 02:42:03;;;;;;;82.80;30.55;;;;;;;;;;6267276;28;20472;-57
2023/01/22 02:45:05;;;;;;;86.32;31.27;;;;;;;;;;6264416;28;20049;-55
2023/01/22 02:48:05;;;;;;;86.63;28.90;;;;;;;;;;6264116;28;20049;-56
2023/01/22 02:51:06;;;;;;;87.68;30.25;;;;;;;;;;6267016;28;20560;-55
2023/01/22 02:54:06;;;;;;;85.43;30.92;;;;;;;;;;6282667;28;20095;-55
2023/01/22 02:57:07;;;;;;;85.78;30.60;;;;;;;;;;6292455;28;20139;-54
2023/01/22 03:00:09;;;;;;;79.18;28.50;;;;;;;;;;6268196;28;20052;-56
2023/01/22 03:03:14;;;;;;;93.53;31.13;;;;;;;;;;6270609;28;20048;-55
2023/01/22 03:06:14;;;;;;;89.78;32.30;;;;;;;;;;6271159;28;20486;-55
2023/01/22 03:09:16;;;;;;;85.88;29.77;;;;;;;;;;6265571;28;20068;-60
2023/01/22 03:12:17;;;;;;;85.87;27.67;;;;;;;;;;6270815;28;20494;-54
2023/01/22 03:21:55;;;;;;;78.30;28.52;;;;;;;;;;6289828;28;20139;-59
2023/01/22 03:24:57;;;;;;;82.78;28.70;;;;;;;;;;6269224;28;20043;-53
2023/01/22 03:28:19;;;;;;;69.10;26.30;;;;;;;;;;6269316;28;20049;-62
2023/01/22 03:31:19;;;;;;;78.00;27.10;;;;;;;;;;6264830;28;20055;-54
2023/01/22 03:34:21;;;;;;;73.07;23.88;;;;;;;;;;6266173;28;20045;-54
2023/01/22 03:37:22;;;;;;;;;;;;;;;;;;6270545;28;20101;-55
2023/01/22 03:40:22;;;;;;;65.25;22.63;;;;;;;;;;6267771;28;19921;-56
2023/01/22 03:43:23;;;;;;;61.28;21.27;;;;;;;;;;6263251;28;20045;-56
2023/01/22 03:46:24;;;;;;;56.75;19.85;;;;;;;;;;6265354;28;20054;-56
2023/01/22 03:49:24;;;;;;;52.13;19.90;;;;;;;;;;6266316;28;20543;-54
2023/01/22 03:52:25;;;;;;;57.28;20.27;;;;;;;;;;6265241;28;20544;-53
2023/01/22 03:55:25;;;;;;;48.38;17.95;;;;;;;;;;6270567;28;20049;-55
2023/01/22 03:58:28;;;;;;;51.42;18.33;;;;;;;;;;6267241;28;20494;-55
2023/01/22 04:01:29;;;;;;;47.78;17.25;;;;;;;;;;6264993;28;20049;-54
2023/01/22 04:04:29;;;;;;;45.35;17.85;;;;;;;;;;6265595;28;20066;-54
2023/01/22 04:07:30;;;;;;;44.88;18.40;;;;;;;;;;6268674;28;20045;-55
2023/01/22 04:10:30;;;;;;;45.85;17.60;;;;;;;;;;6264242;28;20561;-55
2023/01/22 04:13:32;;;;;;;41.28;15.65;;;;;;;;;;6264326;28;20045;-55
2023/01/22 04:16:33;;;;;;;43.00;15.55;;;;;;;;;;6271456;28;20053;-55
2023/01/22 04:19:34;;;;;;;48.33;17.00;;;;;;;;;;6273981;28;20049;-59
2023/01/22 04:22:34;;;;;;;43.60;15.38;;;;;;;;;;6266690;28;20487;-55
2023/01/22 04:25:35;;;;;;;44.90;16.00;;;;;;;;;;6262683;28;20044;-54
2023/01/22 04:28:36;;;;;;;34.45;13.98;;;;;;;;;;6261946;28;20056;-53
2023/01/22 04:31:36;;;;;;;46.90;15.75;;;;;;;;;;6275384;28;20056;-63
2023/01/22 04:34:37;;;;;;;40.25;16.27;;;;;;;;;;6286218;28;20473;-55
2023/01/22 04:37:37;;;;;;;43.05;15.80;;;;;;;;;;6268612;28;20110;-54
2023/01/22 04:40:38;;;;;;;46.95;17.60;;;;;;;;;;6267725;28;20048;-55
2023/01/22 04:43:39;;;;;;;44.25;16.90;;;;;;;;;;6265601;28;20504;-56
2023/01/22 04:46:39;;;;;;;48.15;16.23;;;;;;;;;;6266809;28;20071;-54
2023/01/22 04:49:40;;;;;;;52.80;17.42;;;;;;;;;;6265450;28;20041;-56
2023/01/22 04:52:41;;;;;;;46.97;17.52;;;;;;;;;;6263636;28;20075;-54
2023/01/22 04:55:42;;;;;;;43.70;15.55;;;;;;;;;;6263418;28;20049;-54
2023/01/22 04:58:43;;;;;;;42.42;16.13;;;;;;;;;;6263001;28;20051;-53
2023/01/22 05:01:43;;;;;;;48.72;17.10;;;;;;;;;;6287333;28;20048;-58
2023/01/22 05:04:44;;;;;;;47.53;17.83;;;;;;;;;;6270624;28;20152;-54
2023/01/22 05:07:44;;;;;;;48.92;18.05;;;;;;;;;;6255349;28;20045;-55
2023/01/22 05:10:45;;;;;;;39.78;16.05;;;;;;;;;;6264632;28;20036;-56
2023/01/22 05:13:46;;;;;;;34.40;14.45;;;;;;;;;;6265505;28;20044;-55
2023/01/22 05:16:47;;;;;;;36.13;14.57;;;;;;;;;;6263360;28;20045;-55
2023/01/22 05:19:48;;;;;;;36.70;14.05;;;;;;;;;;6266975;28;20057;-55
2023/01/22 05:22:49;;;;;;;37.60;14.32;;;;;;;;;;6267401;28;20458;-54
2023/01/22 05:25:49;;;;;;;34.65;13.43;;;;;;;;;;6269734;28;20049;-58
2023/01/22 05:28:50;;;;;;;31.25;13.15;;;;;;;;;;6269445;28;20504;-56
2023/01/22 05:31:52;;;;;;;32.40;12.20;;;;;;;;;;6272386;28;20080;-55
2023/01/22 05:34:53;;;;;;;32.13;12.75;;;;;;;;;;6269456;28;20794;-55
2023/01/22 05:37:54;;;;;;;28.30;12.98;;;;;;;;;;6272896;28;20037;-56
2023/01/22 05:40:55;;;;;;;30.10;11.68;;;;;;;;;;6272022;28;20049;-56
2023/01/22 05:43:56;;;;;;;32.85;13.63;;;;;;;;;;6267429;28;20115;-55
2023/01/22 05:46:56;;;;;;;27.85;11.45;;;;;;;;;;6268237;28;20122;-59
2023/01/22 05:49:57;;;;;;;30.70;12.98;;;;;;;;;;6267727;28;20040;-53
2023/01/22 05:52:58;;;;;;;33.55;12.40;;;;;;;;;;6270076;28;20076;-57
2023/01/22 05:56:01;;;;;;;29.20;11.65;;;;;;;;;;6276227;28;20094;-55
2023/01/22 05:59:02;;;;;;;33.33;13.07;;;;;;;;;;6292892;28;20063;-53
2023/01/22 06:02:03;;;;;;;33.10;12.65;;;;;;;;;;6269928;28;20049;-54
2023/01/22 06:05:04;;;;;;;32.45;12.77;;;;;;;;;;6269593;28;20430;-54
2023/01/22 06:08:04;;;;;;;36.50;12.98;;;;;;;;;;6276396;28;20037;-54
2023/01/22 06:11:09;;;;;;;33.63;12.63;;;;;;;;;;6266889;28;20112;-62
2023/01/22 06:14:10;;;;;;;34.15;13.95;;;;;;;;;;6268818;28;20045;-56
2023/01/22 06:17:10;;;;;;;28.70;11.63;;;;;;;;;;6269433;28;20110;-54
2023/01/22 06:20:11;;;;;;;34.70;13.77;;;;;;;;;;6267934;28;20542;-54
2023/01/22 06:23:12;;;;;;;30.13;12.05;;;;;;;;;;6274053;28;20049;-55
2023/01/22 06:26:13;;;;;;;33.35;13.18;;;;;;;;;;6270302;28;20142;-58
2023/01/22 06:29:13;;;;;;;30.88;11.88;;;;;;;;;;6278746;28;20131;-56
2023/01/22 06:32:14;;;;;;;39.35;13.32;;;;;;;;;;6269284;28;20048;-55
2023/01/22 06:35:14;;;;;;;37.80;13.00;;;;;;;;;;6264013;28;20137;-55
2023/01/22 06:38:15;;;;;;;37.67;13.27;;;;;;;;;;6264901;28;20034;-61
2023/01/22 06:41:15;;;;;;;38.90;14.20;;;;;;;;;;6266929;28;20102;-54
2023/01/22 06:44:17;;;;;;;48.05;16.42;;;;;;;;;;6266421;28;20057;-55
2023/01/22 06:47:18;;;;;;;51.88;15.82;;;;;;;;;;6269645;28;20086;-55
2023/01/22 06:50:18;;;;;;;38.92;14.50;;;;;;;;;;6264189;28;20467;-55
2023/01/22 06:53:19;;;;;;;39.55;14.63;;;;;;;;;;6281434;28;20048;-57
2023/01/22 06:56:20;;;;;;;37.92;13.68;;;;;;;;;;6294920;28;20487;-57
2023/01/22 06:59:20;;;;;;;50.42;16.83;;;;;;;;;;6294790;28;20140;-56
2023/01/22 07:02:21;;;;;;;49.40;15.70;;;;;;;;;;6293659;28;20041;-56
2023/01/22 07:05:22;;;;;;;45.30;16.73;;;;;;;;;;6287570;28;20462;-55
2023/01/22 07:08:23;;;;;;;41.22;15.07;;;;;;;;;;6281335;28;20056;-55
2023/01/22 07:11:24;;;;;;;40.53;14.93;;;;;;;;;;6293432;28;20147;-55
2023/01/22 07:14:24;;;;;;;41.80;14.85;;;;;;;;;;6283173;28;20114;-56
2023/01/22 07:17:25;;;;;;;46.92;17.10;;;;;;;;;;6280888;28;20810;-60
2023/01/22 07:20:26;;;;;;;41.88;15.77;;;;;;;;;;6287392;28;20094;-56
2023/01/22 07:23:27;;;;;;;43.90;16.35;;;;;;;;;;6280025;28;20499;-56
2023/01/22 07:26:28;;;;;;;42.10;15.87;;;;;;;;;;6286500;28;20045;-55
2023/01/22 07:29:28;;;;;;;47.83;16.88;;;;;;;;;;6287222;28;20207;-51
2023/01/22 07:32:29;;;;;;;43.95;15.85;;;;;;;;;;6276736;28;20408;-55
2023/01/22 07:35:30;;;;;;;47.92;17.35;;;;;;;;;;6287998;28;20045;-53
2023/01/22 07:38:31;;;;;;;48.35;17.50;;;;;;;;;;6290628;28;20044;-61
2023/01/22 07:41:31;;;;;;;43.13;17.05;;;;;;;;;;6283247;28;20533;-55
2023/01/22 07:44:32;;;;;;;46.85;16.65;;;;;;;;;;6269523;28;20055;-57
2023/01/22 07:47:33;;;;;;;48.55;17.45;;;;;;;;;;6278734;28;20048;-55
2023/01/22 07:50:35;;;;;;;53.15;17.92;;;;;;;;;;6291236;28;20049;-54
2023/01/22 07:53:36;;;;;;;47.03;17.58;;;;;;;;;;6291976;28;20384;-55
2023/01/22 07:56:36;;;;;;;48.42;17.35;;;;;;;;;;6291065;28;20036;-52
2023/01/22 07:59:37;;;;;;;52.75;17.73;;;;;;;;;;6292143;28;20075;-55
2023/01/22 08:02:38;;;;;;;50.33;17.23;;;;;;;;;;6291844;28;20056;-55
2023/01/22 08:05:40;;;;;;;47.25;18.00;;;;;;;;;;6293750;28;20502;-56
2023/01/22 08:08:41;;;;;;;47.53;16.98;;;;;;;;;;6283669;28;20491;-59
2023/01/22 08:11:42;;;;;;;52.13;18.83;;;;;;;;;;6282320;28;20052;-55
2023/01/22 08:14:42;;;;;;;61.05;20.23;;;;;;;;;;6280783;28;20052;-57
2023/01/22 08:17:43;;;;;;;55.38;19.55;;;;;;;;;;6283868;28;20044;-59
2023/01/22 08:20:43;;;;;;;64.63;21.35;;;;;;;;;;6282160;28;20521;-62
2023/01/22 08:23:44;;;;;;;76.80;24.38;;;;;;;;;;6287923;28;21445;-57
2023/01/22 08:26:44;;;;;;;64.25;22.05;;;;;;;;;;6277249;28;20074;-56
2023/01/22 08:29:46;;;;;;;73.75;23.45;;;;;;;;;;6275859;28;20040;-56
2023/01/22 08:32:49;;;;;;;59.20;21.15;;;;;;;;;;6271605;28;20827;-58
2023/01/22 08:35:50;;;;;;;57.47;22.05;;;;;;;;;;6275354;28;20471;-58
2023/01/22 08:38:51;;;;;;;57.17;21.13;;;;;;;;;;6292188;28;20047;-58
2023/01/22 08:41:56;;;;;;;60.17;20.02;;;;;;;;;;6280011;28;20063;-59
2023/01/22 08:44:56;;;;;;;51.75;19.40;;;;;;;;;;6275945;28;20049;-57
2023/01/22 08:47:58;;;;;;;53.35;19.30;;;;;;;;;;6279311;28;20063;-58
2023/01/22 08:50:59;;;;;;;57.88;19.25;;;;;;;;;;6289388;28;20045;-59
2023/01/22 08:54:00;;;;;;;54.22;20.58;;;;;;;;;;6275107;28;20136;-60
2023/01/22 08:57:00;;;;;;;49.15;18.42;;;;;;;;;;6283103;28;20059;-59
2023/01/22 09:00:03;;;;;;;45.53;18.40;;;;;;;;;;6275045;28;20537;-66
2023/01/22 09:03:03;;;;;;;54.45;19.45;;;;;;;;;;6280463;28;20037;-59
2023/01/22 09:06:04;;;;;;;51.33;18.30;;;;;;;;;;6279576;28;20174;-58
2023/01/22 09:09:05;;;;;;;56.33;20.65;;;;;;;;;;6281381;28;20086;-59
2023/01/22 09:12:06;;;;;;;60.08;22.75;;;;;;;;;;6278800;28;20040;-58
2023/01/22 09:15:07;;;;;;;67.38;25.38;;;;;;;;;;6281369;28;20055;-58
2023/01/22 09:18:07;;;;;;;61.40;22.23;;;;;;;;;;6262244;28;20049;-58
2023/01/22 09:21:08;;;;;;;72.45;24.75;;;;;;;;;;6272066;28;20045;-59
2023/01/22 09:24:09;;;;;;;55.70;19.75;;;;;;;;;;6282543;28;20064;-58
2023/01/22 09:27:10;;;;;;;57.47;21.83;;;;;;;;;;6280490;28;20045;-59
2023/01/22 09:30:13;;;;;;;55.85;22.50;;;;;;;;;;6274788;28;20098;-58
2023/01/22 09:33:14;;;;;;;51.38;18.95;;;;;;;;;;6283548;28;20151;-59
2023/01/22 09:36:15;;;;;;;56.78;21.23;;;;;;;;;;6280642;28;20045;-57
2023/01/22 09:39:16;;;;;;;52.75;18.98;;;;;;;;;;6271420;28;20044;-57
2023/01/22 09:42:31;;;;;;;58.83;24.08;;;;;;;;;;6278436;28;20754;-57
2023/01/22 09:45:36;;;;;;;68.63;26.27;;;;;;;;;;6280611;28;20050;-57
2023/01/22 09:48:44;;;;;;;53.65;21.08;;;;;;;;;;6269362;28;20056;-63
2023/01/22 09:51:57;;;;;;;48.15;18.40;;;;;;;;;;6288791;28;20463;-64
2023/01/22 09:54:58;;;;;;;39.42;15.57;;;;;;;;;;6277220;28;20056;-57
2023/01/22 09:58:01;;;;;;;43.10;16.33;;;;;;;;;;6278156;28;20041;-67
2023/01/22 10:01:04;;;;;;;50.72;17.23;;;;;;;;;;6283527;28;20083;-55
2023/01/22 10:04:20;;;;;;;43.42;15.23;;;;;;;;;;6284997;28;20044;-61
2023/01/22 10:07:34;;;;;;;42.90;16.17;;;;;;;;;;6291387;28;20243;-60
2023/01/22 10:10:35;;;;;;;47.45;16.05;;;;;;;;;;6294579;28;20087;-65
2023/01/22 10:13:38;;;;;;;43.78;15.90;;;;;;;;;;6286404;28;20079;-59
2023/01/22 10:16:38;;;;;;;;;;;;;;;;;;6285732;28;20087;-60
2023/01/22 10:19:43;;;;;;;53.40;19.52;;;;;;;;;;6289222;28;20658;-60
2023/01/22 10:22:43;;;;;;;46.03;17.77;;;;;;;;;;6281221;28;20522;-60
2023/01/22 10:25:45;;;;;;;49.00;17.25;;;;;;;;;;6288831;28;20053;-61
2023/01/22 10:28:49;;;;;;;49.70;17.35;;;;;;;;;;6280514;28;20102;-60
2023/01/22 10:31:53;;;;;;;55.47;18.20;;;;;;;;;;6284243;28;20051;-59
2023/01/22 10:35:05;;;;;;;44.88;19.20;;;;;;;;;;6294057;28;20087;-58
2023/01/22 10:38:20;;;;;;;54.38;19.73;;;;;;;;;;6294324;28;20060;-59
2023/01/22 10:41:20;;;;;;;60.55;23.55;;;;;;;;;;6280806;28;20044;-60
2023/01/22 10:44:24;;;;;;;63.63;19.92;;;;;;;;;;6291238;28;20069;-60
2023/01/22 10:47:26;;;;;;;68.03;22.27;;;;;;;;;;6294022;28;20056;-59
2023/01/22 10:50:27;;;;;;;69.15;22.42;;;;;;;;;;6294886;28;20044;-59
2023/01/22 10:53:35;;;;;;;76.25;24.15;;;;;;;;;;6295006;28;20094;-60
2023/01/22 10:56:39;;;;;;;81.28;24.25;;;;;;;;;;6294136;28;20049;-59
2023/01/22 10:59:39;;;;;;;62.30;21.30;;;;;;;;;;6294670;28;20049;-61
2023/01/22 11:02:48;;;;;;;53.72;19.13;;;;;;;;;;6294612;28;20055;-59
2023/01/22 11:05:57;;;;;;;90.40;28.30;;;;;;;;;;6294672;28;20044;-60
2023/01/22 11:09:04;;;;;;;61.78;22.02;;;;;;;;;;6293584;28;20147;-61
2023/01/22 11:12:16;;;;;;;57.97;21.95;;;;;;;;;;6294469;28;20431;-61
2023/01/22 11:15:23;;;;;;;56.50;22.35;;;;;;;;;;6290166;28;20045;-60
2023/01/22 11:18:33;;;;;;;57.80;22.67;;;;;;;;;;6290490;28;20044;-60
2023/01/22 11:21:45;;;;;;;53.05;19.65;;;;;;;;;;6291867;28;20047;-60
2023/01/22 11:24:46;;;;;;;56.70;21.60;;;;;;;;;;6294008;28;20052;-59
2023/01/22 11:28:05;;;;;;;62.20;19.63;;;;;;;;;;6292813;28;20394;-60
2023/01/22 11:31:25;;;;;;;62.92;22.35;;;;;;;;;;6293076;28;20132;-59
2023/01/22 11:35:16;;;;;;;62.28;22.60;;;;;;;;;;6293055;28;20062;-60
2023/01/22 11:38:29;;;;;;;62.53;22.73;;;;;;;;;;6239229;28;20048;-60
2023/01/22 11:42:14;;;;;;;65.68;21.45;;;;;;;;;;6245199;28;20420;-64
2023/01/22 11:45:24;;;;;;;61.20;22.20;;;;;;;;;;6293371;28;20044;-60
2023/01/22 11:48:31;;;;;;;62.67;22.67;;;;;;;;;;6282086;28;20056;-59
2023/01/22 11:51:56;;;;;;;63.20;24.02;;;;;;;;;;6281534;28;20041;-59
2023/01/22 11:55:20;;;;;;;70.30;23.83;;;;;;;;;;6291250;28;20044;-62
2023/01/22 11:58:40;;;;;;;72.70;23.63;;;;;;;;;;6288485;28;20048;-59
2023/01/22 12:01:58;;;;;;;57.92;21.23;;;;;;;;;;6287302;28;20097;-59
2023/01/22 12:05:15;;;;;;;58.00;21.00;;;;;;;;;;6289088;28;20806;-61
2023/01/22 12:08:35;;;;;;;60.40;22.50;;;;;;;;;;6284833;28;20055;-59
2023/01/22 12:11:55;;;;;;;56.38;22.48;;;;;;;;;;6290177;28;20130;-59
2023/01/22 12:15:18;;;;;;;68.90;25.35;;;;;;;;;;6285955;28;20045;-59
2023/01/22 12:19:00;;;;;;;63.58;23.55;;;;;;;;;;6282600;28;20064;-64
2023/01/22 12:22:19;;;;;;;69.43;25.52;;;;;;;;;;6237285;28;20508;-59
2023/01/22 12:25:37;;;;;;;63.70;24.88;;;;;;;;;;6242379;28;20056;-60
2023/01/22 12:29:06;;;;;;;70.65;26.55;;;;;;;;;;6291944;28;20045;-62
2023/01/22 12:32:09;;;;;;;63.22;24.27;;;;;;;;;;6282595;28;20102;-59
2023/01/22 12:35:13;;;;;;;74.70;25.55;;;;;;;;;;6288509;28;20372;-58
2023/01/22 12:38:55;;;;;;;70.88;25.25;;;;;;;;;;6287142;28;20049;-58
2023/01/22 12:42:08;;;;;;;67.47;25.27;;;;;;;;;;6285089;28;20048;-58
2023/01/22 12:45:15;;;;;;;;;;;;;;;;;;6291031;28;20325;-58
2023/01/22 12:49:04;;;;;;;65.72;23.38;;;;;;;;;;6289067;28;19920;-58
2023/01/22 12:52:24;;;;;;;82.22;28.77;;;;;;;;;;6281356;28;20404;-58
2023/01/22 12:55:30;;;;;;;74.70;27.48;;;;;;;;;;6289698;28;20123;-63
2023/01/22 12:58:34;;;;;;;74.03;25.55;;;;;;;;;;6292148;28;20041;-58
2023/01/22 13:01:35;;;;;;;81.75;28.73;;;;;;;;;;6290804;28;20075;-58
2023/01/22 13:04:36;;;;;;;115.22;39.17;;;;;;;;;;6290039;28;20045;-58
2023/01/22 13:07:39;;;;;;;107.00;37.97;;;;;;;;;;6287244;28;20044;-59
2023/01/22 13:10:52;;;;;;;109.50;39.95;;;;;;;;;;6290680;28;20507;-60
2023/01/22 13:13:58;;;;;;;94.10;33.33;;;;;;;;;;6286199;28;20049;-59
2023/01/22 13:17:23;;;;;;;82.32;31.00;;;;;;;;;;6280320;28;20098;-59
2023/01/22 13:20:26;;;;;;;95.50;33.55;;;;;;;;;;6256952;28;20114;-60
2023/01/22 13:23:26;;;;;;;84.53;30.23;;;;;;;;;;6245965;28;20052;-59
2023/01/22 13:26:31;;;;;;;88.18;30.58;;;;;;;;;;6252874;28;20053;-59
2023/01/22 13:29:36;;;;;;;85.63;30.25;;;;;;;;;;6257971;28;20081;-59
2023/01/22 13:32:36;;;;;;;86.43;28.60;;;;;;;;;;6255634;28;20057;-60
2023/01/22 13:35:42;;;;;;;86.32;28.60;;;;;;;;;;6255121;28;20049;-61
2023/01/22 13:38:51;;;;;;;81.60;27.90;;;;;;;;;;6255971;28;20044;-60
2023/01/22 13:41:53;;;;;;;83.20;29.95;;;;;;;;;;6256864;28;20060;-61
2023/01/22 13:44:55;;;;;;;89.90;31.05;;;;;;;;;;6260534;28;20487;-61
2023/01/22 13:47:59;;;;;;;99.87;33.13;;;;;;;;;;6257989;28;20459;-60
2023/01/22 13:51:04;;;;;;;95.05;32.42;;;;;;;;;;6259343;28;20408;-59
2023/01/22 13:54:06;;;;;;;82.18;31.85;;;;;;;;;;6259768;28;20531;-59
2023/01/22 13:57:07;;;;;;;84.18;29.60;;;;;;;;;;6259407;28;20563;-59
2023/01/22 14:00:21;;;;;;;84.95;32.30;;;;;;;;;;6259644;28;20053;-59
2023/01/22 14:03:24;;;;;;;84.85;30.25;;;;;;;;;;6254514;28;20068;-59
2023/01/22 14:06:25;;;;;;;106.10;35.97;;;;;;;;;;6253520;28;20049;-60
2023/01/22 14:09:32;;;;;;;87.72;33.30;;;;;;;;;;6255010;28;20051;-59
2023/01/22 14:12:32;;;;;;;91.55;32.47;;;;;;;;;;6251629;28;20056;-60
2023/01/22 14:15:33;;;;;;;99.68;35.72;;;;;;;;;;6252047;28;20049;-59
2023/01/22 14:18:34;;;;;;;86.40;32.05;;;;;;;;;;6252874;28;20076;-60
2023/01/22 14:21:36;;;;;;;95.13;35.95;;;;;;;;;;6252541;28;20138;-60
2023/01/22 14:24:36;;;;;;;92.95;34.08;;;;;;;;;;6251817;28;20459;-59
2023/01/22 14:27:38;;;;;;;95.82;33.95;;;;;;;;;;6253621;28;20134;-59
2023/01/22 14:30:39;;;;;;;94.05;33.22;;;;;;;;;;6253392;28;20049;-60
2023/01/22 14:33:40;;;;;;;91.72;31.98;;;;;;;;;;6254802;28;20060;-59
2023/01/22 14:36:40;;;;;;;104.18;38.47;;;;;;;;;;6255814;28;20492;-59
2023/01/22 14:39:41;;;;;;;97.20;36.00;;;;;;;;;;6252815;28;20470;-60
2023/01/22 14:42:42;;;;;;;99.10;34.50;;;;;;;;;;6252255;28;20048;-60
2023/01/22 14:45:44;;;;;;;97.85;33.22;;;;;;;;;;6254169;28;20056;-60
2023/01/22 14:48:44;;;;;;;87.32;30.25;;;;;;;;;;6254440;28;20049;-59
2023/01/22 14:51:45;;;;;;;88.15;29.85;;;;;;;;;;6251469;28;20064;-60
2023/01/22 14:54:46;;;;;;;85.53;29.67;;;;;;;;;;6254433;28;20087;-59
2023/01/22 14:57:46;;;;;;;75.75;27.98;;;;;;;;;;6252312;28;20072;-60
2023/01/22 15:00:47;;;;;;;90.97;31.85;;;;;;;;;;6250292;28;20049;-60
2023/01/22 15:03:48;;;;;;;82.47;30.38;;;;;;;;;;6250750;28;20057;-60
2023/01/22 15:06:48;;;;;;;84.10;31.40;;;;;;;;;;6255342;28;20049;-59
2023/01/22 15:09:49;;;;;;;91.07;32.78;;;;;;;;;;6250150;28;20136;-59
2023/01/22 15:12:51;;;;;;;103.28;34.42;;;;;;;;;;6251686;28;20050;-60
2023/01/22 15:15:52;;;;;;;91.20;33.08;;;;;;;;;;6251894;28;20415;-59
2023/01/22 15:18:55;;;;;;;98.78;35.03;;;;;;;;;;6252253;28;20052;-57
2023/01/22 15:21:57;;;;;;;105.03;40.10;;;;;;;;;;6258509;28;20075;-59
2023/01/22 15:24:57;;;;;;;105.85;42.58;;;;;;;;;;6260483;28;20053;-59
2023/01/22 15:27:58;;;;;;;96.22;38.05;;;;;;;;;;6259776;28;20076;-58
2023/01/22 15:31:06;;;;;;;105.50;37.33;;;;;;;;;;6258646;28;20064;-59
2023/01/22 15:34:07;;;;;;;113.43;39.50;;;;;;;;;;6259883;28;20057;-59
2023/01/22 15:37:12;;;;;;;108.28;38.92;;;;;;;;;;6259862;28;20057;-58
2023/01/22 15:40:13;;;;;;;102.72;36.10;;;;;;;;;;6257733;28;21093;-59
2023/01/22 15:43:14;;;;;;;110.15;36.88;;;;;;;;;;6259789;28;20056;-59
2023/01/22 15:46:16;;;;;;;112.95;38.72;;;;;;;;;;6259812;28;20480;-62
2023/01/22 15:49:17;;;;;;;111.68;41.28;;;;;;;;;;6259851;28;20091;-59
2023/01/22 15:52:17;;;;;;;123.72;42.88;;;;;;;;;;6258292;28;20528;-59
2023/01/22 15:55:18;;;;;;;100.28;37.20;;;;;;;;;;6259501;28;20061;-59
2023/01/22 15:58:19;;;;;;;101.78;37.10;;;;;;;;;;6256677;28;20057;-60
2023/01/22 16:01:21;;;;;;;104.32;36.03;;;;;;;;;;6251771;28;20632;-59
2023/01/22 16:04:22;;;;;;;106.95;37.88;;;;;;;;;;6252576;28;20779;-59
2023/01/22 16:07:22;;;;;;;105.82;38.58;;;;;;;;;;6249405;28;20053;-58
2023/01/22 16:10:23;;;;;;;97.72;35.83;;;;;;;;;;6249888;28;20052;-59
2023/01/22 16:13:24;;;;;;;110.20;39.17;;;;;;;;;;6250165;28;20330;-58
2023/01/22 16:16:25;;;;;;;115.93;42.03;;;;;;;;;;6251539;28;20136;-59
2023/01/22 16:19:26;;;;;;;114.70;39.03;;;;;;;;;;6252865;28;20049;-58
2023/01/22 16:22:27;;;;;;;102.88;37.70;;;;;;;;;;6258578;28;20132;-57
2023/01/22 16:25:27;;;;;;;106.05;38.63;;;;;;;;;;6257693;28;20053;-58
2023/01/22 16:28:28;;;;;;;92.60;34.40;;;;;;;;;;6258714;28;20167;-57
2023/01/22 16:31:32;;;;;;;94.38;35.35;;;;;;;;;;6256062;28;20873;-59
2023/01/22 16:34:33;;;;;;;101.57;36.40;;;;;;;;;;6258656;28;20063;-61
2023/01/22 16:37:33;;;;;;;112.25;38.00;;;;;;;;;;6257746;28;20041;-55
2023/01/22 16:40:34;;;;;;;103.22;36.47;;;;;;;;;;6252823;28;20136;-57
2023/01/22 16:43:35;;;;;;;122.38;43.80;;;;;;;;;;6255214;28;20378;-58
2023/01/22 16:46:38;;;;;;;115.47;42.20;;;;;;;;;;6254785;28;20044;-57
2023/01/22 16:49:39;;;;;;;114.22;41.83;;;;;;;;;;6254774;28;20140;-58
2023/01/22 16:52:41;;;;;;;112.25;39.28;;;;;;;;;;6253821;28;20498;-58
2023/01/22 16:55:41;;;;;;;107.77;38.73;;;;;;;;;;6254833;28;20048;-57
2023/01/22 16:58:42;;;;;;;120.53;43.45;;;;;;;;;;6254955;28;20436;-57
2023/01/22 17:01:42;;;;;;;139.38;47.08;;;;;;;;;;6254007;28;20049;-58
2023/01/22 17:04:43;;;;;;;135.07;47.40;;;;;;;;;;6252173;28;20141;-58
2023/01/22 17:07:44;;;;;;;132.75;46.28;;;;;;;;;;6253569;28;20059;-61
2023/01/22 17:10:44;;;;;;;129.18;48.00;;;;;;;;;;6252997;28;20070;-57
2023/01/22 17:13:45;;;;;;;141.60;44.25;;;;;;;;;;6255308;28;20071;-57
2023/01/22 17:16:47;;;;;;;127.72;42.20;;;;;;;;;;6254966;28;20051;-56
2023/01/22 17:19:48;;;;;;;128.90;43.97;;;;;;;;;;6253544;28;20045;-57
2023/01/22 17:22:48;;;;;;;129.10;42.15;;;;;;;;;;6251157;28;20488;-55
2023/01/22 17:25:49;;;;;;;132.30;43.83;;;;;;;;;;6253691;28;20064;-56
2023/01/22 17:28:50;;;;;;;126.10;43.83;;;;;;;;;;6255854;28;20060;-58
2023/01/22 17:31:51;;;;;;;128.05;44.10;;;;;;;;;;6253987;28;20057;-58
2023/01/22 17:34:51;;;;;;;143.27;48.95;;;;;;;;;;6252384;28;20055;-58
2023/01/22 17:37:52;;;;;;;178.75;54.25;;;;;;;;;;6254885;28;20045;-58
2023/01/22 17:40:53;;;;;;;160.13;53.08;;;;;;;;;;6252732;28;20071;-58
2023/01/22 17:43:54;;;;;;;197.63;62.17;;;;;;;;;;6253903;28;20111;-55
2023/01/22 17:46:58;;;;;;;182.15;52.88;;;;;;;;;;6254208;28;20053;-55
2023/01/22 17:49:58;;;;;;;173.25;53.97;;;;;;;;;;6252333;28;20071;-54
2023/01/22 17:52:59;;;;;;;144.43;49.97;;;;;;;;;;6253985;28;20136;-54